sensor_id;sensor_type;location;lat;lon;timestamp;P1;durP1;ratioP1;P2;durP2;ratioP2
19235;SDS011;9752;54.270;12.470;2023-06-19T00:02:35;20.63;;;18.47;;
19235;SDS011;9752;54.270;12.470;2023-06-19T00:07:36;23.20;;;20.70;;
19235;SDS011;9752;54.270;12.470;2023-06-19T00:12:40;25.57;;;21.73;;
19235;SDS011;9752;54.270;12.470;2023-06-19T00:17:41;22.20;;;19.87;;
19235;SDS011;9752;54.270;12.470;2023-06-19T00:22:43;24.43;;;21.37;;
19235;SDS011;9752;54.270;12.470;2023-06-19T00:27:46;23.17;;;20.67;;
19235;SDS011;9752;54.270;12.470;2023-06-19T00:32:48;26.60;;;22.93;;
19235;SDS011;9752;54.270;12.470;2023-06-19T00:37:53;24.20;;;21.50;;
19235;SDS011;9752;54.270;12.470;2023-06-19T00:42:56;24.27;;;21.07;;
19235;SDS011;9752;54.270;12.470;2023-06-19T00:47:58;22.87;;;20.53;;
19235;SDS011;9752;54.270;12.470;2023-06-19T00:53:01;26.93;;;22.20;;
19235;SDS011;9752;54.270;12.470;2023-06-19T00:58:06;25.20;;;20.87;;
19235;SDS011;9752;54.270;12.470;2023-06-19T01:03:07;22.83;;;20.37;;
19235;SDS011;9752;54.270;12.470;2023-06-19T01:08:10;23.27;;;20.70;;
19235;SDS011;9752;54.270;12.470;2023-06-19T01:13:24;24.87;;;22.17;;
19235;SDS011;9752;54.270;12.470;2023-06-19T01:18:32;28.03;;;24.93;;
19235;SDS011;9752;54.270;12.470;2023-06-19T01:23:35;28.73;;;23.47;;
19235;SDS011;9752;54.270;12.470;2023-06-19T01:28:37;27.07;;;21.47;;
19235;SDS011;9752;54.270;12.470;2023-06-19T01:33:40;27.33;;;21.43;;
19235;SDS011;9752;54.270;12.470;2023-06-19T01:38:46;26.30;;;22.83;;
19235;SDS011;9752;54.270;12.470;2023-06-19T01:43:49;26.73;;;23.00;;
19235;SDS011;9752;54.270;12.470;2023-06-19T01:48:52;26.90;;;24.10;;
19235;SDS011;9752;54.270;12.470;2023-06-19T01:53:55;27.13;;;23.13;;
19235;SDS011;9752;54.270;12.470;2023-06-19T01:58:57;26.63;;;23.73;;
19235;SDS011;9752;54.270;12.470;2023-06-19T02:03:59;25.60;;;22.60;;
19235;SDS011;9752;54.270;12.470;2023-06-19T02:09:02;27.77;;;24.80;;
19235;SDS011;9752;54.270;12.470;2023-06-19T02:14:03;27.10;;;24.20;;
19235;SDS011;9752;54.270;12.470;2023-06-19T02:19:05;26.07;;;22.97;;
19235;SDS011;9752;54.270;12.470;2023-06-19T02:24:08;27.80;;;24.63;;
19235;SDS011;9752;54.270;12.470;2023-06-19T02:29:10;26.07;;;23.30;;
19235;SDS011;9752;54.270;12.470;2023-06-19T02:34:11;32.17;;;24.67;;
19235;SDS011;9752;54.270;12.470;2023-06-19T02:39:15;29.73;;;26.23;;
19235;SDS011;9752;54.270;12.470;2023-06-19T02:44:18;31.80;;;27.53;;
19235;SDS011;9752;54.270;12.470;2023-06-19T02:49:20;32.07;;;27.30;;
19235;SDS011;9752;54.270;12.470;2023-06-19T02:54:23;30.97;;;25.80;;
19235;SDS011;9752;54.270;12.470;2023-06-19T02:59:24;24.53;;;21.93;;
19235;SDS011;9752;54.270;12.470;2023-06-19T03:04:26;33.03;;;27.47;;
19235;SDS011;9752;54.270;12.470;2023-06-19T03:09:31;36.10;;;28.57;;
19235;SDS011;9752;54.270;12.470;2023-06-19T03:14:32;34.37;;;28.20;;
19235;SDS011;9752;54.270;12.470;2023-06-19T03:19:34;32.40;;;27.30;;
19235;SDS011;9752;54.270;12.470;2023-06-19T03:24:38;34.77;;;28.60;;
19235;SDS011;9752;54.270;12.470;2023-06-19T03:29:49;31.87;;;27.87;;
19235;SDS011;9752;54.270;12.470;2023-06-19T03:34:58;31.03;;;27.20;;
19235;SDS011;9752;54.270;12.470;2023-06-19T03:40:02;31.73;;;25.87;;
19235;SDS011;9752;54.270;12.470;2023-06-19T03:45:09;31.43;;;27.47;;
19235;SDS011;9752;54.270;12.470;2023-06-19T03:50:11;28.93;;;24.40;;
19235;SDS011;9752;54.270;12.470;2023-06-19T03:55:14;29.87;;;26.60;;
19235;SDS011;9752;54.270;12.470;2023-06-19T04:00:16;29.43;;;25.13;;
19235;SDS011;9752;54.270;12.470;2023-06-19T04:05:19;31.17;;;25.97;;
19235;SDS011;9752;54.270;12.470;2023-06-19T04:10:22;32.20;;;25.90;;
19235;SDS011;9752;54.270;12.470;2023-06-19T04:15:23;27.47;;;24.07;;
19235;SDS011;9752;54.270;12.470;2023-06-19T04:20:25;25.93;;;23.10;;
19235;SDS011;9752;54.270;12.470;2023-06-19T04:25:28;28.47;;;24.37;;
19235;SDS011;9752;54.270;12.470;2023-06-19T04:30:30;28.20;;;24.07;;
19235;SDS011;9752;54.270;12.470;2023-06-19T04:35:32;27.23;;;24.10;;
19235;SDS011;9752;54.270;12.470;2023-06-19T04:40:36;27.03;;;23.67;;
19235;SDS011;9752;54.270;12.470;2023-06-19T04:45:38;26.03;;;21.70;;
19235;SDS011;9752;54.270;12.470;2023-06-19T04:50:40;20.87;;;18.87;;
19235;SDS011;9752;54.270;12.470;2023-06-19T04:55:43;23.00;;;20.50;;
19235;SDS011;9752;54.270;12.470;2023-06-19T05:00:45;26.03;;;23.37;;
19235;SDS011;9752;54.270;12.470;2023-06-19T05:05:51;25.00;;;22.30;;
19235;SDS011;9752;54.270;12.470;2023-06-19T05:10:54;26.50;;;20.40;;
19235;SDS011;9752;54.270;12.470;2023-06-19T05:15:56;25.77;;;21.77;;
19235;SDS011;9752;54.270;12.470;2023-06-19T05:20:58;20.50;;;18.50;;
19235;SDS011;9752;54.270;12.470;2023-06-19T05:26:01;20.67;;;18.37;;
19235;SDS011;9752;54.270;12.470;2023-06-19T05:31:03;20.30;;;18.50;;
19235;SDS011;9752;54.270;12.470;2023-06-19T05:36:04;18.77;;;16.63;;
19235;SDS011;9752;54.270;12.470;2023-06-19T05:41:08;18.57;;;16.77;;
19235;SDS011;9752;54.270;12.470;2023-06-19T05:46:09;18.13;;;16.33;;
19235;SDS011;9752;54.270;12.470;2023-06-19T05:51:11;17.40;;;15.80;;
19235;SDS011;9752;54.270;12.470;2023-06-19T05:56:14;16.70;;;15.13;;
19235;SDS011;9752;54.270;12.470;2023-06-19T06:01:16;15.53;;;14.23;;
19235;SDS011;9752;54.270;12.470;2023-06-19T06:06:19;16.53;;;15.13;;
19235;SDS011;9752;54.270;12.470;2023-06-19T06:11:22;16.80;;;15.50;;
19235;SDS011;9752;54.270;12.470;2023-06-19T06:16:24;17.47;;;16.27;;
19235;SDS011;9752;54.270;12.470;2023-06-19T06:21:25;17.40;;;16.20;;
19235;SDS011;9752;54.270;12.470;2023-06-19T06:26:28;20.40;;;18.93;;
19235;SDS011;9752;54.270;12.470;2023-06-19T06:31:30;20.47;;;18.87;;
19235;SDS011;9752;54.270;12.470;2023-06-19T06:36:32;20.47;;;18.87;;
19235;SDS011;9752;54.270;12.470;2023-06-19T06:41:35;20.37;;;18.90;;
19235;SDS011;9752;54.270;12.470;2023-06-19T06:46:39;21.37;;;19.77;;
19235;SDS011;9752;54.270;12.470;2023-06-19T06:51:40;22.30;;;20.80;;
19235;SDS011;9752;54.270;12.470;2023-06-19T06:56:43;21.17;;;19.73;;
19235;SDS011;9752;54.270;12.470;2023-06-19T07:01:48;20.27;;;19.00;;
19235;SDS011;9752;54.270;12.470;2023-06-19T07:06:49;21.23;;;19.93;;
19235;SDS011;9752;54.270;12.470;2023-06-19T07:11:53;21.90;;;20.47;;
19235;SDS011;9752;54.270;12.470;2023-06-19T07:16:54;20.47;;;19.20;;
19235;SDS011;9752;54.270;12.470;2023-06-19T07:21:56;22.33;;;20.80;;
19235;SDS011;9752;54.270;12.470;2023-06-19T07:26:59;22.90;;;21.27;;
19235;SDS011;9752;54.270;12.470;2023-06-19T07:32:01;22.13;;;20.57;;
19235;SDS011;9752;54.270;12.470;2023-06-19T07:37:04;21.80;;;20.30;;
19235;SDS011;9752;54.270;12.470;2023-06-19T07:42:07;21.03;;;19.73;;
19235;SDS011;9752;54.270;12.470;2023-06-19T07:47:10;20.13;;;18.93;;
19235;SDS011;9752;54.270;12.470;2023-06-19T07:52:13;21.77;;;20.47;;
19235;SDS011;9752;54.270;12.470;2023-06-19T07:57:16;22.70;;;21.30;;
19235;SDS011;9752;54.270;12.470;2023-06-19T08:02:18;21.70;;;20.33;;
19235;SDS011;9752;54.270;12.470;2023-06-19T08:07:20;22.20;;;20.70;;
19235;SDS011;9752;54.270;12.470;2023-06-19T08:12:23;22.13;;;20.57;;
19235;SDS011;9752;54.270;12.470;2023-06-19T08:17:24;21.30;;;20.10;;
19235;SDS011;9752;54.270;12.470;2023-06-19T08:22:26;22.97;;;21.40;;
19235;SDS011;9752;54.270;12.470;2023-06-19T08:27:29;22.20;;;20.73;;
19235;SDS011;9752;54.270;12.470;2023-06-19T08:32:31;23.00;;;21.07;;
19235;SDS011;9752;54.270;12.470;2023-06-19T08:37:34;23.17;;;21.73;;
19235;SDS011;9752;54.270;12.470;2023-06-19T08:42:37;23.10;;;21.60;;
19235;SDS011;9752;54.270;12.470;2023-06-19T08:47:40;23.27;;;21.70;;
19235;SDS011;9752;54.270;12.470;2023-06-19T08:52:41;23.23;;;21.40;;
19235;SDS011;9752;54.270;12.470;2023-06-19T08:57:45;23.37;;;21.67;;
19235;SDS011;9752;54.270;12.470;2023-06-19T09:02:49;22.17;;;20.87;;
19235;SDS011;9752;54.270;12.470;2023-06-19T09:07:55;23.47;;;21.97;;
19235;SDS011;9752;54.270;12.470;2023-06-19T09:13:00;23.07;;;21.20;;
19235;SDS011;9752;54.270;12.470;2023-06-19T09:18:03;23.63;;;22.00;;
19235;SDS011;9752;54.270;12.470;2023-06-19T09:23:06;23.20;;;21.67;;
19235;SDS011;9752;54.270;12.470;2023-06-19T09:28:16;23.67;;;22.10;;
19235;SDS011;9752;54.270;12.470;2023-06-19T09:33:18;22.40;;;20.97;;
19235;SDS011;9752;54.270;12.470;2023-06-19T09:38:23;22.93;;;21.17;;
19235;SDS011;9752;54.270;12.470;2023-06-19T09:43:33;23.00;;;21.60;;
19235;SDS011;9752;54.270;12.470;2023-06-19T09:48:40;24.07;;;22.47;;
19235;SDS011;9752;54.270;12.470;2023-06-19T09:53:43;24.37;;;22.53;;
19235;SDS011;9752;54.270;12.470;2023-06-19T09:58:48;24.77;;;22.67;;
19235;SDS011;9752;54.270;12.470;2023-06-19T10:04:02;25.30;;;23.27;;
19235;SDS011;9752;54.270;12.470;2023-06-19T10:09:06;25.73;;;24.03;;
19235;SDS011;9752;54.270;12.470;2023-06-19T10:14:10;24.90;;;23.20;;
19235;SDS011;9752;54.270;12.470;2023-06-19T10:19:16;24.33;;;22.80;;
19235;SDS011;9752;54.270;12.470;2023-06-19T10:24:19;25.03;;;23.13;;
19235;SDS011;9752;54.270;12.470;2023-06-19T10:29:23;25.03;;;23.43;;
19235;SDS011;9752;54.270;12.470;2023-06-19T10:34:32;25.43;;;23.70;;
19235;SDS011;9752;54.270;12.470;2023-06-19T10:39:35;26.27;;;24.13;;
19235;SDS011;9752;54.270;12.470;2023-06-19T10:44:38;26.57;;;24.67;;
19235;SDS011;9752;54.270;12.470;2023-06-19T10:49:42;25.70;;;23.93;;
19235;SDS011;9752;54.270;12.470;2023-06-19T10:54:43;24.67;;;22.63;;
19235;SDS011;9752;54.270;12.470;2023-06-19T10:59:50;23.70;;;21.67;;
19235;SDS011;9752;54.270;12.470;2023-06-19T11:04:52;22.00;;;20.10;;
19235;SDS011;9752;54.270;12.470;2023-06-19T11:09:54;21.83;;;20.03;;
19235;SDS011;9752;54.270;12.470;2023-06-19T11:14:57;21.50;;;19.97;;
19235;SDS011;9752;54.270;12.470;2023-06-19T11:19:59;20.87;;;19.43;;
19235;SDS011;9752;54.270;12.470;2023-06-19T11:25:02;24.33;;;22.53;;
19235;SDS011;9752;54.270;12.470;2023-06-19T11:30:06;24.67;;;22.90;;
19235;SDS011;9752;54.270;12.470;2023-06-19T11:35:10;24.53;;;22.77;;
19235;SDS011;9752;54.270;12.470;2023-06-19T11:40:13;24.80;;;22.67;;
19235;SDS011;9752;54.270;12.470;2023-06-19T11:45:18;23.50;;;21.87;;
19235;SDS011;9752;54.270;12.470;2023-06-19T11:50:25;24.93;;;23.23;;
19235;SDS011;9752;54.270;12.470;2023-06-19T11:55:27;24.37;;;22.63;;
19235;SDS011;9752;54.270;12.470;2023-06-19T12:00:31;24.20;;;22.60;;
19235;SDS011;9752;54.270;12.470;2023-06-19T12:05:34;24.63;;;22.77;;
19235;SDS011;9752;54.270;12.470;2023-06-19T12:10:35;24.73;;;23.07;;
19235;SDS011;9752;54.270;12.470;2023-06-19T12:15:38;25.60;;;23.77;;
19235;SDS011;9752;54.270;12.470;2023-06-19T12:20:40;24.77;;;22.93;;
19235;SDS011;9752;54.270;12.470;2023-06-19T12:25:42;24.53;;;22.93;;
19235;SDS011;9752;54.270;12.470;2023-06-19T12:30:45;25.77;;;23.93;;
19235;SDS011;9752;54.270;12.470;2023-06-19T12:35:48;26.43;;;24.57;;
19235;SDS011;9752;54.270;12.470;2023-06-19T12:40:50;25.50;;;23.53;;
19235;SDS011;9752;54.270;12.470;2023-06-19T12:45:53;24.43;;;22.77;;
19235;SDS011;9752;54.270;12.470;2023-06-19T12:50:55;27.70;;;25.87;;
19235;SDS011;9752;54.270;12.470;2023-06-19T12:55:56;27.70;;;25.90;;
19235;SDS011;9752;54.270;12.470;2023-06-19T13:01:00;26.03;;;24.33;;
19235;SDS011;9752;54.270;12.470;2023-06-19T13:06:01;26.67;;;24.97;;
19235;SDS011;9752;54.270;12.470;2023-06-19T13:11:03;27.50;;;25.40;;
19235;SDS011;9752;54.270;12.470;2023-06-19T13:16:06;28.00;;;26.00;;
19235;SDS011;9752;54.270;12.470;2023-06-19T13:21:09;25.83;;;23.93;;
19235;SDS011;9752;54.270;12.470;2023-06-19T13:26:12;26.67;;;25.00;;
19235;SDS011;9752;54.270;12.470;2023-06-19T13:31:15;25.07;;;23.57;;
19235;SDS011;9752;54.270;12.470;2023-06-19T13:36:16;25.97;;;24.37;;
19235;SDS011;9752;54.270;12.470;2023-06-19T13:41:19;24.93;;;23.53;;
19235;SDS011;9752;54.270;12.470;2023-06-19T13:46:25;24.17;;;22.57;;
19235;SDS011;9752;54.270;12.470;2023-06-19T13:51:27;23.07;;;21.40;;
19235;SDS011;9752;54.270;12.470;2023-06-19T13:56:28;23.00;;;21.67;;
19235;SDS011;9752;54.270;12.470;2023-06-19T14:01:31;24.03;;;22.63;;
19235;SDS011;9752;54.270;12.470;2023-06-19T14:06:33;22.73;;;21.43;;
19235;SDS011;9752;54.270;12.470;2023-06-19T14:11:35;22.90;;;21.50;;
19235;SDS011;9752;54.270;12.470;2023-06-19T14:16:38;23.00;;;21.60;;
19235;SDS011;9752;54.270;12.470;2023-06-19T14:21:40;22.43;;;21.23;;
19235;SDS011;9752;54.270;12.470;2023-06-19T14:26:41;24.53;;;23.13;;
19235;SDS011;9752;54.270;12.470;2023-06-19T14:31:44;23.00;;;21.60;;
19235;SDS011;9752;54.270;12.470;2023-06-19T14:36:46;23.33;;;22.03;;
19235;SDS011;9752;54.270;12.470;2023-06-19T14:41:48;23.40;;;22.00;;
19235;SDS011;9752;54.270;12.470;2023-06-19T14:46:51;21.50;;;20.20;;
19235;SDS011;9752;54.270;12.470;2023-06-19T14:51:52;22.20;;;20.80;;
19235;SDS011;9752;54.270;12.470;2023-06-19T14:56:54;22.30;;;20.90;;
19235;SDS011;9752;54.270;12.470;2023-06-19T15:01:57;21.67;;;20.27;;
19235;SDS011;9752;54.270;12.470;2023-06-19T15:06:59;21.37;;;20.17;;
19235;SDS011;9752;54.270;12.470;2023-06-19T15:12:01;20.07;;;18.97;;
19235;SDS011;9752;54.270;12.470;2023-06-19T15:17:04;21.10;;;19.90;;
19235;SDS011;9752;54.270;12.470;2023-06-19T15:22:06;21.00;;;19.70;;
19235;SDS011;9752;54.270;12.470;2023-06-19T15:27:08;20.33;;;19.23;;
19235;SDS011;9752;54.270;12.470;2023-06-19T15:32:11;20.50;;;19.43;;
19235;SDS011;9752;54.270;12.470;2023-06-19T15:37:12;21.20;;;20.00;;
19235;SDS011;9752;54.270;12.470;2023-06-19T15:42:14;20.73;;;19.60;;
19235;SDS011;9752;54.270;12.470;2023-06-19T15:47:17;20.20;;;19.00;;
19235;SDS011;9752;54.270;12.470;2023-06-19T15:52:19;20.70;;;19.60;;
19235;SDS011;9752;54.270;12.470;2023-06-19T15:57:21;20.57;;;19.37;;
19235;SDS011;9752;54.270;12.470;2023-06-19T16:02:24;20.43;;;19.33;;
19235;SDS011;9752;54.270;12.470;2023-06-19T16:07:26;21.27;;;20.07;;
19235;SDS011;9752;54.270;12.470;2023-06-19T16:12:28;21.90;;;20.50;;
19235;SDS011;9752;54.270;12.470;2023-06-19T16:17:31;21.80;;;20.47;;
19235;SDS011;9752;54.270;12.470;2023-06-19T16:22:32;21.43;;;20.13;;
19235;SDS011;9752;54.270;12.470;2023-06-19T16:27:34;21.37;;;20.17;;
19235;SDS011;9752;54.270;12.470;2023-06-19T16:32:37;20.87;;;19.40;;
19235;SDS011;9752;54.270;12.470;2023-06-19T16:37:39;21.53;;;20.17;;
19235;SDS011;9752;54.270;12.470;2023-06-19T16:42:42;21.27;;;20.07;;
19235;SDS011;9752;54.270;12.470;2023-06-19T16:47:45;21.07;;;19.77;;
19235;SDS011;9752;54.270;12.470;2023-06-19T16:52:46;21.55;;;20.25;;
19235;SDS011;9752;54.270;12.470;2023-06-19T16:57:49;21.10;;;19.85;;
19235;SDS011;9752;54.270;12.470;2023-06-19T17:02:52;21.13;;;20.08;;
19235;SDS011;9752;54.270;12.470;2023-06-19T17:07:55;21.77;;;20.42;;
19235;SDS011;9752;54.270;12.470;2023-06-19T17:12:57;22.38;;;21.00;;
19235;SDS011;9752;54.270;12.470;2023-06-19T17:18:00;20.10;;;19.00;;
19235;SDS011;9752;54.270;12.470;2023-06-19T17:23:02;21.60;;;20.50;;
19235;SDS011;9752;54.270;12.470;2023-06-19T17:28:04;22.40;;;21.10;;
19235;SDS011;9752;54.270;12.470;2023-06-19T17:33:08;22.08;;;20.77;;
19235;SDS011;9752;54.270;12.470;2023-06-19T17:38:10;22.13;;;20.83;;
19235;SDS011;9752;54.270;12.470;2023-06-19T17:43:11;22.97;;;21.40;;
19235;SDS011;9752;54.270;12.470;2023-06-19T17:48:15;22.37;;;21.07;;
19235;SDS011;9752;54.270;12.470;2023-06-19T17:53:16;20.87;;;19.77;;
19235;SDS011;9752;54.270;12.470;2023-06-19T17:58:18;19.97;;;18.97;;
19235;SDS011;9752;54.270;12.470;2023-06-19T18:03:21;20.90;;;19.40;;
19235;SDS011;9752;54.270;12.470;2023-06-19T18:08:23;21.17;;;20.00;;
19235;SDS011;9752;54.270;12.470;2023-06-19T18:13:24;20.97;;;19.77;;
19235;SDS011;9752;54.270;12.470;2023-06-19T18:18:27;21.00;;;19.73;;
19235;SDS011;9752;54.270;12.470;2023-06-19T18:23:29;21.30;;;19.93;;
19235;SDS011;9752;54.270;12.470;2023-06-19T18:28:30;21.43;;;20.23;;
19235;SDS011;9752;54.270;12.470;2023-06-19T18:33:33;21.90;;;20.60;;
19235;SDS011;9752;54.270;12.470;2023-06-19T18:38:35;22.23;;;20.83;;
19235;SDS011;9752;54.270;12.470;2023-06-19T18:43:37;22.47;;;21.07;;
19235;SDS011;9752;54.270;12.470;2023-06-19T18:48:40;22.77;;;21.10;;
19235;SDS011;9752;54.270;12.470;2023-06-19T18:53:42;23.80;;;22.50;;
19235;SDS011;9752;54.270;12.470;2023-06-19T18:58:44;23.13;;;21.80;;
19235;SDS011;9752;54.270;12.470;2023-06-19T19:03:47;24.80;;;23.00;;
19235;SDS011;9752;54.270;12.470;2023-06-19T19:08:49;22.47;;;21.17;;
19235;SDS011;9752;54.270;12.470;2023-06-19T19:13:56;25.73;;;24.03;;
19235;SDS011;9752;54.270;12.470;2023-06-19T19:18:59;24.80;;;23.30;;
19235;SDS011;9752;54.270;12.470;2023-06-19T19:24:00;27.07;;;25.33;;
19235;SDS011;9752;54.270;12.470;2023-06-19T19:29:02;24.63;;;23.00;;
19235;SDS011;9752;54.270;12.470;2023-06-19T19:34:05;25.43;;;23.83;;
19235;SDS011;9752;54.270;12.470;2023-06-19T19:39:07;25.97;;;24.37;;
19235;SDS011;9752;54.270;12.470;2023-06-19T19:44:08;23.83;;;22.23;;
19235;SDS011;9752;54.270;12.470;2023-06-19T19:49:12;24.17;;;22.60;;
19235;SDS011;9752;54.270;12.470;2023-06-19T19:54:13;23.83;;;22.23;;
19235;SDS011;9752;54.270;12.470;2023-06-19T19:59:15;23.97;;;22.17;;
19235;SDS011;9752;54.270;12.470;2023-06-19T20:04:18;23.50;;;21.90;;
19235;SDS011;9752;54.270;12.470;2023-06-19T20:09:19;23.00;;;21.00;;
19235;SDS011;9752;54.270;12.470;2023-06-19T20:14:21;22.93;;;21.10;;
19235;SDS011;9752;54.270;12.470;2023-06-19T20:19:25;22.23;;;20.43;;
19235;SDS011;9752;54.270;12.470;2023-06-19T20:24:27;21.73;;;20.00;;
19235;SDS011;9752;54.270;12.470;2023-06-19T20:29:30;22.53;;;20.53;;
19235;SDS011;9752;54.270;12.470;2023-06-19T20:34:33;22.17;;;20.33;;
19235;SDS011;9752;54.270;12.470;2023-06-19T20:39:35;23.07;;;20.97;;
19235;SDS011;9752;54.270;12.470;2023-06-19T20:44:36;21.40;;;19.50;;
19235;SDS011;9752;54.270;12.470;2023-06-19T20:49:39;21.20;;;19.20;;
19235;SDS011;9752;54.270;12.470;2023-06-19T20:54:41;21.37;;;19.33;;
19235;SDS011;9752;54.270;12.470;2023-06-19T20:59:42;21.17;;;19.17;;
19235;SDS011;9752;54.270;12.470;2023-06-19T21:04:45;22.60;;;20.63;;
19235;SDS011;9752;54.270;12.470;2023-06-19T21:09:48;21.60;;;19.60;;
19235;SDS011;9752;54.270;12.470;2023-06-19T21:14:49;21.87;;;19.67;;
19235;SDS011;9752;54.270;12.470;2023-06-19T21:19:52;23.03;;;20.80;;
19235;SDS011;9752;54.270;12.470;2023-06-19T21:24:54;22.40;;;20.33;;
19235;SDS011;9752;54.270;12.470;2023-06-19T21:29:56;24.83;;;22.37;;
19235;SDS011;9752;54.270;12.470;2023-06-19T21:34:59;23.60;;;21.10;;
19235;SDS011;9752;54.270;12.470;2023-06-19T21:40:00;24.70;;;22.43;;
19235;SDS011;9752;54.270;12.470;2023-06-19T21:45:04;24.93;;;22.63;;
19235;SDS011;9752;54.270;12.470;2023-06-19T21:50:08;27.33;;;24.73;;
19235;SDS011;9752;54.270;12.470;2023-06-19T21:55:10;25.53;;;23.17;;
19235;SDS011;9752;54.270;12.470;2023-06-19T22:00:13;25.57;;;23.17;;
19235;SDS011;9752;54.270;12.470;2023-06-19T22:05:17;28.27;;;25.27;;
19235;SDS011;9752;54.270;12.470;2023-06-19T22:10:19;28.10;;;25.43;;
19235;SDS011;9752;54.270;12.470;2023-06-19T22:15:21;28.67;;;25.97;;
19235;SDS011;9752;54.270;12.470;2023-06-19T22:20:24;28.43;;;25.70;;
19235;SDS011;9752;54.270;12.470;2023-06-19T22:25:26;27.63;;;24.87;;
19235;SDS011;9752;54.270;12.470;2023-06-19T22:30:27;30.13;;;27.20;;
19235;SDS011;9752;54.270;12.470;2023-06-19T22:35:31;28.87;;;26.07;;
19235;SDS011;9752;54.270;12.470;2023-06-19T22:40:32;29.07;;;25.97;;
19235;SDS011;9752;54.270;12.470;2023-06-19T22:45:34;33.50;;;30.07;;
19235;SDS011;9752;54.270;12.470;2023-06-19T22:50:37;29.90;;;26.97;;
19235;SDS011;9752;54.270;12.470;2023-06-19T22:55:39;31.03;;;27.73;;
19235;SDS011;9752;54.270;12.470;2023-06-19T23:00:40;29.50;;;26.57;;
19235;SDS011;9752;54.270;12.470;2023-06-19T23:05:43;31.17;;;27.93;;
19235;SDS011;9752;54.270;12.470;2023-06-19T23:10:45;30.97;;;27.97;;
19235;SDS011;9752;54.270;12.470;2023-06-19T23:15:47;33.17;;;29.77;;
19235;SDS011;9752;54.270;12.470;2023-06-19T23:20:49;30.50;;;27.47;;
19235;SDS011;9752;54.270;12.470;2023-06-19T23:25:51;32.13;;;28.80;;
19235;SDS011;9752;54.270;12.470;2023-06-19T23:30:53;31.50;;;28.07;;
19235;SDS011;9752;54.270;12.470;2023-06-19T23:35:56;33.70;;;30.27;;
19235;SDS011;9752;54.270;12.470;2023-06-19T23:40:57;34.37;;;30.77;;
19235;SDS011;9752;54.270;12.470;2023-06-19T23:45:59;38.70;;;34.60;;
19235;SDS011;9752;54.270;12.470;2023-06-19T23:51:02;42.13;;;37.53;;
19235;SDS011;9752;54.270;12.470;2023-06-19T23:56:04;48.63;;;43.33;;
